»·PEaware :: DAL1935 KSLC-KDEN

DAL1935 :: KSLC-KDEN

FLIGHT INFORMATION

Flight Status: Arrived
Operator:
Delta Air Lines
More flights by this operator :: More flights under this callsign
Pilot: Ben F. (2808)
Aircraft: MCDONNELL-DOUGLAS MD-82
(MD82)
More flights by this aircraft type
Origin: KSLC Salt Lake City Intl
United States
Destination: KDEN Denver Intl
United States
More flights between these airports :: More routes between these airports
Route: NSIGN5 CHE KAILE2
File this flight plan on PilotEdge
Remarks:
Altitude:
(Current/Filed)
31,000ft
Speed:
(Current/Filed)
447kts
Departed: 04-Mar-18 09:07 AM
Arrived: 04-Mar-18 10:08 AM
Distance/Time
Traveled:
339nm/1:01
Distance/Time
To Go:
Arrived

Flight Plot

Page will automatically refresh every two minutes.

Flight plan parsing failed; only flown route is shown


Map Options




Map Legend


Flown Route
Filed Route
Departure Airport
Arrival Airport
Navaid (VOR, NDB)
Fix

Horizontal Profiles

Position Reports

Time Latitude Longitude Heading Altitude Ground
Speed
04-Mar-18 08:51 40.785703 -111.978715 242 4236ft 0kts
04-Mar-18 08:52 40.785703 -111.978715 242 4236ft 0kts
04-Mar-18 08:53 40.785703 -111.978715 242 4236ft 0kts
04-Mar-18 08:54 40.785703 -111.978715 242 4236ft 0kts
04-Mar-18 08:55 40.785703 -111.978715 242 4236ft 0kts
04-Mar-18 08:56 40.785703 -111.978715 242 4236ft 0kts
04-Mar-18 08:57 40.785703 -111.978715 242 4236ft 0kts
04-Mar-18 08:58 40.785703 -111.978715 242 4236ft 0kts
04-Mar-18 08:59 40.785703 -111.978715 242 4236ft 0kts
04-Mar-18 09:00 40.785703 -111.978715 242 4236ft 0kts
04-Mar-18 09:01 40.785703 -111.978715 242 4236ft 0kts
04-Mar-18 09:02 40.785703 -111.978715 242 4236ft 0kts
04-Mar-18 09:03 40.785703 -111.978715 242 4236ft 0kts
04-Mar-18 09:04 40.785735 -111.978630 242 4236ft 2kts
04-Mar-18 09:05 40.786292 -111.977952 196 4236ft 2kts
04-Mar-18 09:06 40.786726 -111.977899 175 4236ft 0kts
04-Mar-18 09:07 40.786726 -111.977899 175 4236ft 0kts
04-Mar-18 09:08 40.786726 -111.977899 175 4236ft 0kts
04-Mar-18 09:09 40.786715 -111.977897 174 4236ft 2kts
04-Mar-18 09:10 40.786194 -111.977013 121 4236ft 7kts
04-Mar-18 09:11 40.781210 -111.976133 175 4236ft 22kts
04-Mar-18 09:12 40.775693 -111.974875 129 4236ft 10kts
04-Mar-18 09:13 40.775592 -111.974363 88 4236ft 5kts
04-Mar-18 09:14 40.781494 -111.973883 355 4236ft 84kts
04-Mar-18 09:15 40.821979 -111.978363 354 5417ft 161kts
04-Mar-18 09:16 40.870023 -111.984866 351 7084ft 196kts
04-Mar-18 09:17 40.935216 -111.993878 352 8521ft 255kts
04-Mar-18 09:18 41.007200 -112.004082 351 10941ft 267kts
04-Mar-18 09:19 41.086233 -112.011661 9 12847ft 307kts
04-Mar-18 09:20 41.150782 -111.934743 59 14929ft 339kts
04-Mar-18 09:21 41.132018 -111.814943 140 16494ft 357kts
04-Mar-18 09:22 41.056607 -111.728121 143 18660ft 363kts
04-Mar-18 09:23 40.973382 -111.652425 153 20791ft 365kts
04-Mar-18 09:24 40.912475 -111.544232 104 22660ft 406kts
04-Mar-18 09:25 40.908173 -111.391728 98 24212ft 421kts
04-Mar-18 09:26 40.891687 -111.237629 107 25419ft 429kts
04-Mar-18 09:27 40.873736 -111.100901 105 26379ft 441kts
04-Mar-18 09:28 40.854998 -110.938932 106 27331ft 452kts
04-Mar-18 09:29 40.835051 -110.772789 107 28245ft 461kts
04-Mar-18 09:30 40.814161 -110.603968 108 29012ft 469kts
04-Mar-18 09:31 40.792906 -110.433294 108 29821ft 475kts
04-Mar-18 09:32 40.775153 -110.289687 109 30585ft 475kts
04-Mar-18 09:33 40.749587 -110.088924 109 30864ft 474kts
04-Mar-18 09:34 40.733091 -109.913847 105 30862ft 484kts
04-Mar-18 09:35 40.723726 -109.766500 105 30861ft 484kts
04-Mar-18 09:36 40.711366 -109.590224 105 30860ft 483kts
04-Mar-18 09:37 40.696201 -109.384373 105 30863ft 482kts
04-Mar-18 09:38 40.685005 -109.238165 105 30864ft 482kts
04-Mar-18 09:39 40.671557 -109.062830 105 30867ft 481kts
04-Mar-18 09:40 40.658103 -108.886940 105 30866ft 481kts
04-Mar-18 09:41 40.643904 -108.711876 105 30861ft 482kts
04-Mar-18 09:42 40.629368 -108.535959 105 30854ft 484kts
04-Mar-18 09:43 40.615279 -108.360018 105 30847ft 485kts
04-Mar-18 09:44 40.600605 -108.183786 105 30839ft 485kts
04-Mar-18 09:45 40.585157 -108.007106 105 30828ft 486kts
04-Mar-18 09:46 40.569870 -107.831092 105 30810ft 485kts
04-Mar-18 09:47 40.554297 -107.654866 105 30809ft 483kts
04-Mar-18 09:48 40.538268 -107.479968 105 30810ft 481kts
04-Mar-18 09:49 40.522577 -107.305555 104 30794ft 481kts
04-Mar-18 09:50 40.510663 -107.130241 101 30782ft 481kts
04-Mar-18 09:51 40.501907 -106.955298 101 30788ft 479kts
04-Mar-18 09:52 40.492421 -106.781496 100 30791ft 477kts
04-Mar-18 09:53 40.483551 -106.607609 100 30787ft 475kts
04-Mar-18 09:54 40.474248 -106.434607 100 30783ft 474kts
04-Mar-18 09:55 40.463590 -106.260999 102 28436ft 474kts
04-Mar-18 09:56 40.450956 -106.091010 100 25508ft 463kts
04-Mar-18 09:57 40.437378 -105.926631 107 22769ft 441kts
04-Mar-18 09:58 40.410674 -105.773019 109 20200ft 422kts
04-Mar-18 09:59 40.387223 -105.625277 108 17788ft 405kts
04-Mar-18 10:00 40.364769 -105.485727 108 17048ft 365kts
04-Mar-18 10:01 40.346528 -105.360937 107 16483ft 341kts
04-Mar-18 10:02 40.330450 -105.241726 106 14935ft 324kts
04-Mar-18 10:03 40.314572 -105.128055 105 13426ft 309kts
04-Mar-18 10:04 40.298922 -105.014862 104 12993ft 302kts
04-Mar-18 10:05 40.284141 -104.909103 105 12585ft 291kts
04-Mar-18 10:06 40.269073 -104.806806 104 11373ft 274kts
04-Mar-18 10:07 40.244190 -104.719576 142 10615ft 248kts
04-Mar-18 10:08 40.184155 -104.683174 177 10045ft 253kts
04-Mar-18 10:09 40.115611 -104.683232 186 9576ft 215kts
04-Mar-18 10:10 40.062584 -104.684806 184 8615ft 166kts
04-Mar-18 10:11 40.018969 -104.685482 184 7749ft 152kts
04-Mar-18 10:12 39.976959 -104.685906 182 6996ft 146kts
04-Mar-18 10:13 39.936277 -104.686535 184 6221ft 144kts
04-Mar-18 10:14 39.896401 -104.686868 181 5464ft 143kts
04-Mar-18 10:15 39.874461 -104.686932 165 5440ft 25kts
04-Mar-18 10:16 39.869381 -104.685015 180 5440ft 20kts
04-Mar-18 10:17 39.862171 -104.685090 180 5440ft 23kts
04-Mar-18 10:18 39.857183 -104.685099 180 5440ft 13kts
04-Mar-18 10:19 39.856009 -104.681598 90 5440ft 14kts
04-Mar-18 10:20 39.855270 -104.677637 164 5440ft 8kts
04-Mar-18 10:21 39.854469 -104.677587 165 5440ft 0kts

Navigation Log

Ident Type
Flight plan parsing failed, navigation log unavailable